sensor_id;sensor_type;location;lat;lon;timestamp;P1;durP1;ratioP1;P2;durP2;ratioP2
64950;SDS011;51482;47.014;7.652;2022-11-27T00:01:42;11.00;;;7.17;;
64950;SDS011;51482;47.014;7.652;2022-11-27T00:04:09;10.87;;;7.30;;
64950;SDS011;51482;47.014;7.652;2022-11-27T00:06:36;9.87;;;7.17;;
64950;SDS011;51482;47.014;7.652;2022-11-27T00:09:04;13.30;;;7.67;;
64950;SDS011;51482;47.014;7.652;2022-11-27T00:11:31;14.53;;;8.37;;
64950;SDS011;51482;47.014;7.652;2022-11-27T00:13:58;11.80;;;7.30;;
64950;SDS011;51482;47.014;7.652;2022-11-27T00:16:24;11.03;;;6.53;;
64950;SDS011;51482;47.014;7.652;2022-11-27T00:18:50;9.70;;;6.67;;
64950;SDS011;51482;47.014;7.652;2022-11-27T00:21:24;11.80;;;7.53;;
64950;SDS011;51482;47.014;7.652;2022-11-27T00:23:51;10.67;;;7.77;;
64950;SDS011;51482;47.014;7.652;2022-11-27T00:26:19;12.90;;;7.73;;
64950;SDS011;51482;47.014;7.652;2022-11-27T00:28:45;11.80;;;7.53;;
64950;SDS011;51482;47.014;7.652;2022-11-27T00:31:15;10.33;;;7.57;;
64950;SDS011;51482;47.014;7.652;2022-11-27T00:33:43;11.67;;;7.90;;
64950;SDS011;51482;47.014;7.652;2022-11-27T00:36:09;13.27;;;7.60;;
64950;SDS011;51482;47.014;7.652;2022-11-27T00:38:35;13.33;;;8.43;;
64950;SDS011;51482;47.014;7.652;2022-11-27T00:41:09;11.23;;;7.10;;
64950;SDS011;51482;47.014;7.652;2022-11-27T00:43:38;11.47;;;7.77;;
64950;SDS011;51482;47.014;7.652;2022-11-27T00:46:04;13.07;;;7.17;;
64950;SDS011;51482;47.014;7.652;2022-11-27T00:48:29;10.43;;;7.00;;
64950;SDS011;51482;47.014;7.652;2022-11-27T00:51:05;10.40;;;6.80;;
64950;SDS011;51482;47.014;7.652;2022-11-27T00:53:32;13.50;;;7.40;;
64950;SDS011;51482;47.014;7.652;2022-11-27T00:55:58;19.93;;;7.97;;
64950;SDS011;51482;47.014;7.652;2022-11-27T00:58:24;18.47;;;9.07;;
64950;SDS011;51482;47.014;7.652;2022-11-27T01:00:54;20.97;;;9.67;;
64950;SDS011;51482;47.014;7.652;2022-11-27T01:03:24;28.57;;;9.83;;
64950;SDS011;51482;47.014;7.652;2022-11-27T01:05:50;21.43;;;9.57;;
64950;SDS011;51482;47.014;7.652;2022-11-27T01:08:16;16.43;;;9.00;;
64950;SDS011;51482;47.014;7.652;2022-11-27T01:10:46;23.07;;;10.13;;
64950;SDS011;51482;47.014;7.652;2022-11-27T01:13:13;21.57;;;9.27;;
64950;SDS011;51482;47.014;7.652;2022-11-27T01:15:39;39.03;;;9.77;;
64950;SDS011;51482;47.014;7.652;2022-11-27T01:18:04;12.93;;;8.47;;
64950;SDS011;51482;47.014;7.652;2022-11-27T01:20:30;14.73;;;8.13;;
64950;SDS011;51482;47.014;7.652;2022-11-27T01:22:55;12.77;;;7.83;;
64950;SDS011;51482;47.014;7.652;2022-11-27T01:25:21;12.40;;;7.50;;
64950;SDS011;51482;47.014;7.652;2022-11-27T01:27:46;13.73;;;8.23;;
64950;SDS011;51482;47.014;7.652;2022-11-27T01:30:12;11.90;;;8.43;;
64950;SDS011;51482;47.014;7.652;2022-11-27T01:32:38;14.57;;;7.90;;
64950;SDS011;51482;47.014;7.652;2022-11-27T01:35:04;12.07;;;8.47;;
64950;SDS011;51482;47.014;7.652;2022-11-27T01:37:29;11.37;;;7.60;;
64950;SDS011;51482;47.014;7.652;2022-11-27T01:39:55;11.30;;;8.17;;
64950;SDS011;51482;47.014;7.652;2022-11-27T01:42:20;13.77;;;8.13;;
64950;SDS011;51482;47.014;7.652;2022-11-27T01:44:50;10.73;;;7.20;;
64950;SDS011;51482;47.014;7.652;2022-11-27T01:47:25;12.80;;;7.70;;
64950;SDS011;51482;47.014;7.652;2022-11-27T01:49:55;11.63;;;7.43;;
64950;SDS011;51482;47.014;7.652;2022-11-27T01:52:32;13.20;;;7.33;;
64950;SDS011;51482;47.014;7.652;2022-11-27T01:55:03;12.00;;;7.60;;
64950;SDS011;51482;47.014;7.652;2022-11-27T01:57:42;12.10;;;7.43;;
64950;SDS011;51482;47.014;7.652;2022-11-27T02:00:12;13.57;;;7.60;;
64950;SDS011;51482;47.014;7.652;2022-11-27T02:02:39;13.47;;;8.03;;
64950;SDS011;51482;47.014;7.652;2022-11-27T02:05:06;11.77;;;7.90;;
64950;SDS011;51482;47.014;7.652;2022-11-27T02:07:33;13.43;;;8.07;;
64950;SDS011;51482;47.014;7.652;2022-11-27T02:09:59;11.87;;;8.17;;
64950;SDS011;51482;47.014;7.652;2022-11-27T02:12:26;13.57;;;7.07;;
64950;SDS011;51482;47.014;7.652;2022-11-27T02:20:39;14.13;;;7.90;;
64950;SDS011;51482;47.014;7.652;2022-11-27T02:28:56;11.73;;;7.53;;
64950;SDS011;51482;47.014;7.652;2022-11-27T02:33:57;9.83;;;6.77;;
64950;SDS011;51482;47.014;7.652;2022-11-27T02:36:35;8.93;;;6.40;;
64950;SDS011;51482;47.014;7.652;2022-11-27T02:39:06;8.77;;;6.03;;
64950;SDS011;51482;47.014;7.652;2022-11-27T02:41:46;8.60;;;6.07;;
64950;SDS011;51482;47.014;7.652;2022-11-27T02:44:24;9.97;;;6.30;;
64950;SDS011;51482;47.014;7.652;2022-11-27T02:46:52;8.40;;;6.40;;
64950;SDS011;51482;47.014;7.652;2022-11-27T02:49:18;10.30;;;6.20;;
64950;SDS011;51482;47.014;7.652;2022-11-27T02:51:47;10.17;;;7.00;;
64950;SDS011;51482;47.014;7.652;2022-11-27T02:54:17;12.30;;;6.73;;
64950;SDS011;51482;47.014;7.652;2022-11-27T02:56:48;19.37;;;8.47;;
64950;SDS011;51482;47.014;7.652;2022-11-27T02:59:15;13.07;;;8.20;;
64950;SDS011;51482;47.014;7.652;2022-11-27T03:01:45;12.17;;;7.33;;
64950;SDS011;51482;47.014;7.652;2022-11-27T03:04:17;11.57;;;7.23;;
64950;SDS011;51482;47.014;7.652;2022-11-27T03:06:51;11.00;;;6.90;;
64950;SDS011;51482;47.014;7.652;2022-11-27T03:09:21;11.40;;;6.57;;
64950;SDS011;51482;47.014;7.652;2022-11-27T03:12:06;13.33;;;6.60;;
64950;SDS011;51482;47.014;7.652;2022-11-27T03:14:34;12.80;;;7.33;;
64950;SDS011;51482;47.014;7.652;2022-11-27T03:19:48;12.57;;;7.73;;
64950;SDS011;51482;47.014;7.652;2022-11-27T03:22:20;10.50;;;6.43;;
64950;SDS011;51482;47.014;7.652;2022-11-27T03:24:45;7.03;;;5.37;;
64950;SDS011;51482;47.014;7.652;2022-11-27T03:27:13;10.00;;;5.80;;
64950;SDS011;51482;47.014;7.652;2022-11-27T03:29:53;12.93;;;6.50;;
64950;SDS011;51482;47.014;7.652;2022-11-27T03:32:22;9.23;;;6.27;;
64950;SDS011;51482;47.014;7.652;2022-11-27T03:34:48;7.80;;;6.03;;
64950;SDS011;51482;47.014;7.652;2022-11-27T03:37:14;9.27;;;5.47;;
64950;SDS011;51482;47.014;7.652;2022-11-27T03:39:40;9.17;;;5.70;;
64950;SDS011;51482;47.014;7.652;2022-11-27T03:45:05;8.17;;;5.30;;
64950;SDS011;51482;47.014;7.652;2022-11-27T03:55:39;7.90;;;5.20;;
64950;SDS011;51482;47.014;7.652;2022-11-27T03:58:37;8.37;;;5.73;;
64950;SDS011;51482;47.014;7.652;2022-11-27T04:01:25;9.80;;;5.70;;
64950;SDS011;51482;47.014;7.652;2022-11-27T04:03:51;7.57;;;5.63;;
64950;SDS011;51482;47.014;7.652;2022-11-27T04:06:16;10.70;;;5.77;;
64950;SDS011;51482;47.014;7.652;2022-11-27T04:08:42;9.73;;;5.73;;
64950;SDS011;51482;47.014;7.652;2022-11-27T04:11:09;9.47;;;5.57;;
64950;SDS011;51482;47.014;7.652;2022-11-27T04:13:35;11.57;;;6.63;;
64950;SDS011;51482;47.014;7.652;2022-11-27T04:16:01;11.40;;;6.97;;
64950;SDS011;51482;47.014;7.652;2022-11-27T04:18:27;11.00;;;6.50;;
64950;SDS011;51482;47.014;7.652;2022-11-27T04:20:53;10.03;;;5.90;;
64950;SDS011;51482;47.014;7.652;2022-11-27T04:23:18;6.90;;;5.60;;
64950;SDS011;51482;47.014;7.652;2022-11-27T04:25:44;8.97;;;5.70;;
64950;SDS011;51482;47.014;7.652;2022-11-27T04:28:09;6.93;;;5.20;;
64950;SDS011;51482;47.014;7.652;2022-11-27T04:30:35;8.57;;;4.77;;
64950;SDS011;51482;47.014;7.652;2022-11-27T04:33:00;7.40;;;5.20;;
64950;SDS011;51482;47.014;7.652;2022-11-27T04:35:26;7.40;;;4.60;;
64950;SDS011;51482;47.014;7.652;2022-11-27T04:37:52;9.47;;;5.07;;
64950;SDS011;51482;47.014;7.652;2022-11-27T04:40:17;8.33;;;4.97;;
64950;SDS011;51482;47.014;7.652;2022-11-27T04:42:43;6.87;;;5.10;;
64950;SDS011;51482;47.014;7.652;2022-11-27T04:45:09;8.03;;;5.40;;
64950;SDS011;51482;47.014;7.652;2022-11-27T04:47:35;9.27;;;4.63;;
64950;SDS011;51482;47.014;7.652;2022-11-27T04:50:00;11.30;;;5.13;;
64950;SDS011;51482;47.014;7.652;2022-11-27T04:52:26;7.87;;;5.00;;
64950;SDS011;51482;47.014;7.652;2022-11-27T04:54:51;7.77;;;5.23;;
64950;SDS011;51482;47.014;7.652;2022-11-27T04:57:17;8.90;;;5.03;;
64950;SDS011;51482;47.014;7.652;2022-11-27T04:59:42;9.50;;;6.10;;
64950;SDS011;51482;47.014;7.652;2022-11-27T05:02:08;11.67;;;6.00;;
64950;SDS011;51482;47.014;7.652;2022-11-27T05:04:33;8.87;;;5.47;;
64950;SDS011;51482;47.014;7.652;2022-11-27T05:06:59;9.57;;;5.43;;
64950;SDS011;51482;47.014;7.652;2022-11-27T05:09:24;9.63;;;5.23;;
64950;SDS011;51482;47.014;7.652;2022-11-27T05:11:50;8.90;;;5.33;;
64950;SDS011;51482;47.014;7.652;2022-11-27T05:14:15;8.43;;;5.33;;
64950;SDS011;51482;47.014;7.652;2022-11-27T05:16:48;10.03;;;5.63;;
64950;SDS011;51482;47.014;7.652;2022-11-27T05:19:16;10.07;;;7.23;;
64950;SDS011;51482;47.014;7.652;2022-11-27T05:21:43;7.30;;;5.43;;
64950;SDS011;51482;47.014;7.652;2022-11-27T05:24:10;6.67;;;5.27;;
64950;SDS011;51482;47.014;7.652;2022-11-27T05:26:36;7.07;;;4.57;;
64950;SDS011;51482;47.014;7.652;2022-11-27T05:29:02;5.90;;;4.27;;
64950;SDS011;51482;47.014;7.652;2022-11-27T05:31:28;5.10;;;3.57;;
64950;SDS011;51482;47.014;7.652;2022-11-27T05:33:55;5.80;;;4.67;;
64950;SDS011;51482;47.014;7.652;2022-11-27T05:36:20;6.60;;;4.77;;
64950;SDS011;51482;47.014;7.652;2022-11-27T05:38:46;6.13;;;4.33;;
64950;SDS011;51482;47.014;7.652;2022-11-27T05:41:12;6.73;;;3.93;;
64950;SDS011;51482;47.014;7.652;2022-11-27T05:43:37;7.67;;;3.87;;
64950;SDS011;51482;47.014;7.652;2022-11-27T05:46:07;5.37;;;4.10;;
64950;SDS011;51482;47.014;7.652;2022-11-27T05:48:34;6.43;;;4.30;;
64950;SDS011;51482;47.014;7.652;2022-11-27T05:51:00;5.20;;;3.87;;
64950;SDS011;51482;47.014;7.652;2022-11-27T05:53:26;6.73;;;4.07;;
64950;SDS011;51482;47.014;7.652;2022-11-27T05:55:52;5.90;;;4.10;;
64950;SDS011;51482;47.014;7.652;2022-11-27T05:58:17;5.43;;;3.83;;
64950;SDS011;51482;47.014;7.652;2022-11-27T06:00:43;5.23;;;3.90;;
64950;SDS011;51482;47.014;7.652;2022-11-27T06:03:09;7.37;;;4.20;;
64950;SDS011;51482;47.014;7.652;2022-11-27T06:05:38;5.37;;;4.00;;
64950;SDS011;51482;47.014;7.652;2022-11-27T06:08:04;5.93;;;4.13;;
64950;SDS011;51482;47.014;7.652;2022-11-27T06:10:30;6.73;;;4.30;;
64950;SDS011;51482;47.014;7.652;2022-11-27T06:12:55;6.60;;;4.50;;
64950;SDS011;51482;47.014;7.652;2022-11-27T06:15:21;7.13;;;4.07;;
64950;SDS011;51482;47.014;7.652;2022-11-27T06:17:49;5.10;;;3.87;;
64950;SDS011;51482;47.014;7.652;2022-11-27T06:20:15;4.80;;;3.73;;
64950;SDS011;51482;47.014;7.652;2022-11-27T06:22:41;4.33;;;3.67;;
64950;SDS011;51482;47.014;7.652;2022-11-27T06:25:07;5.93;;;4.13;;
64950;SDS011;51482;47.014;7.652;2022-11-27T06:27:33;5.53;;;4.10;;
64950;SDS011;51482;47.014;7.652;2022-11-27T06:30:00;5.80;;;4.00;;
64950;SDS011;51482;47.014;7.652;2022-11-27T06:32:26;4.83;;;3.40;;
64950;SDS011;51482;47.014;7.652;2022-11-27T06:34:51;6.20;;;3.93;;
64950;SDS011;51482;47.014;7.652;2022-11-27T06:37:17;4.70;;;3.73;;
64950;SDS011;51482;47.014;7.652;2022-11-27T06:39:42;8.27;;;4.80;;
64950;SDS011;51482;47.014;7.652;2022-11-27T06:42:08;8.67;;;5.10;;
64950;SDS011;51482;47.014;7.652;2022-11-27T06:44:34;9.17;;;5.23;;
64950;SDS011;51482;47.014;7.652;2022-11-27T06:46:59;8.40;;;5.27;;
64950;SDS011;51482;47.014;7.652;2022-11-27T06:49:25;7.20;;;5.07;;
64950;SDS011;51482;47.014;7.652;2022-11-27T06:51:50;13.27;;;8.63;;
64950;SDS011;51482;47.014;7.652;2022-11-27T06:54:16;12.63;;;8.50;;
64950;SDS011;51482;47.014;7.652;2022-11-27T06:56:41;11.93;;;7.47;;
64950;SDS011;51482;47.014;7.652;2022-11-27T06:59:10;17.37;;;8.67;;
64950;SDS011;51482;47.014;7.652;2022-11-27T07:01:38;13.87;;;7.53;;
64950;SDS011;51482;47.014;7.652;2022-11-27T07:04:04;17.50;;;8.13;;
64950;SDS011;51482;47.014;7.652;2022-11-27T07:06:29;10.43;;;5.60;;
64950;SDS011;51482;47.014;7.652;2022-11-27T07:08:55;12.33;;;7.43;;
64950;SDS011;51482;47.014;7.652;2022-11-27T07:11:22;8.43;;;6.00;;
64950;SDS011;51482;47.014;7.652;2022-11-27T07:13:49;10.13;;;6.53;;
64950;SDS011;51482;47.014;7.652;2022-11-27T07:16:16;7.37;;;4.70;;
64950;SDS011;51482;47.014;7.652;2022-11-27T07:18:43;7.47;;;4.80;;
64950;SDS011;51482;47.014;7.652;2022-11-27T07:21:16;7.57;;;4.10;;
64950;SDS011;51482;47.014;7.652;2022-11-27T07:23:42;6.57;;;4.17;;
64950;SDS011;51482;47.014;7.652;2022-11-27T07:26:08;6.67;;;4.37;;
64950;SDS011;51482;47.014;7.652;2022-11-27T07:28:45;7.57;;;5.20;;
64950;SDS011;51482;47.014;7.652;2022-11-27T07:31:12;7.77;;;4.83;;
64950;SDS011;51482;47.014;7.652;2022-11-27T07:33:39;11.00;;;5.60;;
64950;SDS011;51482;47.014;7.652;2022-11-27T07:36:06;10.17;;;5.80;;
64950;SDS011;51482;47.014;7.652;2022-11-27T07:38:36;8.80;;;5.10;;
64950;SDS011;51482;47.014;7.652;2022-11-27T07:41:02;8.13;;;4.73;;
64950;SDS011;51482;47.014;7.652;2022-11-27T07:43:29;6.40;;;4.77;;
64950;SDS011;51482;47.014;7.652;2022-11-27T07:45:55;5.73;;;4.10;;
64950;SDS011;51482;47.014;7.652;2022-11-27T07:48:21;4.67;;;4.17;;
64950;SDS011;51482;47.014;7.652;2022-11-27T07:50:47;6.27;;;4.17;;
64950;SDS011;51482;47.014;7.652;2022-11-27T07:53:12;7.00;;;4.77;;
64950;SDS011;51482;47.014;7.652;2022-11-27T07:55:38;9.00;;;4.73;;
64950;SDS011;51482;47.014;7.652;2022-11-27T07:58:05;10.43;;;4.40;;
64950;SDS011;51482;47.014;7.652;2022-11-27T08:00:31;6.70;;;3.90;;
64950;SDS011;51482;47.014;7.652;2022-11-27T08:02:58;7.27;;;4.20;;
64950;SDS011;51482;47.014;7.652;2022-11-27T08:05:24;6.27;;;4.00;;
64950;SDS011;51482;47.014;7.652;2022-11-27T08:07:49;7.70;;;4.57;;
64950;SDS011;51482;47.014;7.652;2022-11-27T08:10:15;6.97;;;4.33;;
64950;SDS011;51482;47.014;7.652;2022-11-27T08:12:41;6.57;;;4.03;;
64950;SDS011;51482;47.014;7.652;2022-11-27T08:15:06;8.13;;;5.00;;
64950;SDS011;51482;47.014;7.652;2022-11-27T08:17:33;6.67;;;4.77;;
64950;SDS011;51482;47.014;7.652;2022-11-27T08:19:59;7.77;;;5.90;;
64950;SDS011;51482;47.014;7.652;2022-11-27T08:22:25;9.23;;;5.63;;
64950;SDS011;51482;47.014;7.652;2022-11-27T08:24:50;8.27;;;5.27;;
64950;SDS011;51482;47.014;7.652;2022-11-27T08:27:16;6.83;;;5.30;;
64950;SDS011;51482;47.014;7.652;2022-11-27T08:29:42;8.77;;;4.27;;
64950;SDS011;51482;47.014;7.652;2022-11-27T08:32:09;6.00;;;4.67;;
64950;SDS011;51482;47.014;7.652;2022-11-27T08:34:35;6.00;;;4.50;;
64950;SDS011;51482;47.014;7.652;2022-11-27T08:37:02;8.50;;;4.20;;
64950;SDS011;51482;47.014;7.652;2022-11-27T08:39:28;7.33;;;4.87;;
64950;SDS011;51482;47.014;7.652;2022-11-27T08:41:54;6.07;;;4.13;;
64950;SDS011;51482;47.014;7.652;2022-11-27T08:44:19;8.93;;;4.83;;
64950;SDS011;51482;47.014;7.652;2022-11-27T08:46:45;6.77;;;4.50;;
64950;SDS011;51482;47.014;7.652;2022-11-27T08:49:11;4.80;;;3.77;;
64950;SDS011;51482;47.014;7.652;2022-11-27T08:51:36;4.40;;;3.90;;
64950;SDS011;51482;47.014;7.652;2022-11-27T08:54:02;5.53;;;4.17;;
64950;SDS011;51482;47.014;7.652;2022-11-27T08:56:27;4.33;;;3.63;;
64950;SDS011;51482;47.014;7.652;2022-11-27T08:58:53;5.57;;;4.53;;
64950;SDS011;51482;47.014;7.652;2022-11-27T09:01:23;6.63;;;4.10;;
64950;SDS011;51482;47.014;7.652;2022-11-27T09:03:50;6.20;;;5.27;;
64950;SDS011;51482;47.014;7.652;2022-11-27T09:06:18;5.20;;;4.03;;
64950;SDS011;51482;47.014;7.652;2022-11-27T09:08:54;8.07;;;7.27;;
64950;SDS011;51482;47.014;7.652;2022-11-27T09:11:24;5.07;;;3.90;;
64950;SDS011;51482;47.014;7.652;2022-11-27T09:13:51;5.03;;;3.90;;
64950;SDS011;51482;47.014;7.652;2022-11-27T09:16:18;5.60;;;4.20;;
64950;SDS011;51482;47.014;7.652;2022-11-27T09:18:46;5.10;;;3.83;;
64950;SDS011;51482;47.014;7.652;2022-11-27T09:21:13;5.53;;;4.77;;
64950;SDS011;51482;47.014;7.652;2022-11-27T09:23:41;6.10;;;4.93;;
64950;SDS011;51482;47.014;7.652;2022-11-27T09:26:14;5.70;;;3.97;;
64950;SDS011;51482;47.014;7.652;2022-11-27T09:28:41;5.67;;;4.33;;
64950;SDS011;51482;47.014;7.652;2022-11-27T09:31:09;5.40;;;3.80;;
64950;SDS011;51482;47.014;7.652;2022-11-27T09:33:37;6.00;;;4.00;;
64950;SDS011;51482;47.014;7.652;2022-11-27T09:36:04;5.37;;;3.80;;
64950;SDS011;51482;47.014;7.652;2022-11-27T09:38:40;6.10;;;3.70;;
64950;SDS011;51482;47.014;7.652;2022-11-27T09:43:40;6.93;;;3.80;;
64950;SDS011;51482;47.014;7.652;2022-11-27T09:46:19;4.23;;;3.57;;
64950;SDS011;51482;47.014;7.652;2022-11-27T09:48:52;4.53;;;3.87;;
64950;SDS011;51482;47.014;7.652;2022-11-27T09:51:22;3.63;;;3.30;;
64950;SDS011;51482;47.014;7.652;2022-11-27T09:54:02;5.10;;;3.47;;
64950;SDS011;51482;47.014;7.652;2022-11-27T09:56:33;3.90;;;3.50;;
64950;SDS011;51482;47.014;7.652;2022-11-27T09:59:00;4.90;;;3.77;;
64950;SDS011;51482;47.014;7.652;2022-11-27T10:01:28;5.90;;;3.40;;
64950;SDS011;51482;47.014;7.652;2022-11-27T10:03:56;4.07;;;3.57;;
64950;SDS011;51482;47.014;7.652;2022-11-27T10:17:36;5.43;;;3.53;;
64950;SDS011;51482;47.014;7.652;2022-11-27T10:25:20;6.07;;;4.47;;
64950;SDS011;51482;47.014;7.652;2022-11-27T10:30:30;6.10;;;4.40;;
64950;SDS011;51482;47.014;7.652;2022-11-27T10:33:01;7.83;;;5.03;;
64950;SDS011;51482;47.014;7.652;2022-11-27T10:35:33;7.57;;;5.30;;
64950;SDS011;51482;47.014;7.652;2022-11-27T10:38:00;8.07;;;5.37;;
64950;SDS011;51482;47.014;7.652;2022-11-27T10:41:24;7.03;;;5.33;;
64950;SDS011;51482;47.014;7.652;2022-11-27T10:43:35;7.77;;;5.47;;
64950;SDS011;51482;47.014;7.652;2022-11-27T10:46:11;7.47;;;5.90;;
64950;SDS011;51482;47.014;7.652;2022-11-27T10:48:40;11.80;;;6.87;;
64950;SDS011;51482;47.014;7.652;2022-11-27T10:51:11;10.47;;;6.43;;
64950;SDS011;51482;47.014;7.652;2022-11-27T10:53:41;8.30;;;6.43;;
64950;SDS011;51482;47.014;7.652;2022-11-27T10:58:58;8.47;;;6.10;;
64950;SDS011;51482;47.014;7.652;2022-11-27T11:01:27;6.93;;;5.53;;
64950;SDS011;51482;47.014;7.652;2022-11-27T11:04:07;8.10;;;6.00;;
64950;SDS011;51482;47.014;7.652;2022-11-27T11:06:41;7.67;;;5.70;;
64950;SDS011;51482;47.014;7.652;2022-11-27T11:09:13;8.03;;;6.20;;
64950;SDS011;51482;47.014;7.652;2022-11-27T11:11:48;8.87;;;6.53;;
64950;SDS011;51482;47.014;7.652;2022-11-27T11:14:18;9.50;;;6.73;;
64950;SDS011;51482;47.014;7.652;2022-11-27T11:16:47;9.00;;;6.33;;
64950;SDS011;51482;47.014;7.652;2022-11-27T11:19:23;7.57;;;6.50;;
64950;SDS011;51482;47.014;7.652;2022-11-27T11:21:56;12.27;;;8.07;;
64950;SDS011;51482;47.014;7.652;2022-11-27T11:24:24;10.27;;;7.00;;
64950;SDS011;51482;47.014;7.652;2022-11-27T11:26:54;9.00;;;6.90;;
64950;SDS011;51482;47.014;7.652;2022-11-27T11:29:41;13.50;;;7.50;;
64950;SDS011;51482;47.014;7.652;2022-11-27T11:32:34;10.50;;;7.37;;
64950;SDS011;51482;47.014;7.652;2022-11-27T11:35:09;11.47;;;7.80;;
64950;SDS011;51482;47.014;7.652;2022-11-27T11:37:52;10.73;;;7.47;;
64950;SDS011;51482;47.014;7.652;2022-11-27T11:40:20;11.40;;;7.80;;
64950;SDS011;51482;47.014;7.652;2022-11-27T11:45:21;11.30;;;7.97;;
64950;SDS011;51482;47.014;7.652;2022-11-27T11:47:48;16.07;;;8.33;;
64950;SDS011;51482;47.014;7.652;2022-11-27T11:50:50;9.80;;;7.63;;
64950;SDS011;51482;47.014;7.652;2022-11-27T12:15:30;8.70;;;7.00;;
64950;SDS011;51482;47.014;7.652;2022-11-27T12:20:39;9.50;;;7.43;;
64950;SDS011;51482;47.014;7.652;2022-11-27T12:23:23;9.67;;;7.10;;
64950;SDS011;51482;47.014;7.652;2022-11-27T12:31:40;11.43;;;7.30;;
64950;SDS011;51482;47.014;7.652;2022-11-27T12:38:02;9.87;;;7.33;;
64950;SDS011;51482;47.014;7.652;2022-11-27T12:43:12;10.63;;;7.23;;
64950;SDS011;51482;47.014;7.652;2022-11-27T12:50:54;10.17;;;7.70;;
64950;SDS011;51482;47.014;7.652;2022-11-27T12:53:26;10.60;;;7.17;;
64950;SDS011;51482;47.014;7.652;2022-11-27T12:56:04;9.40;;;7.17;;
64950;SDS011;51482;47.014;7.652;2022-11-27T12:58:56;9.80;;;7.93;;
64950;SDS011;51482;47.014;7.652;2022-11-27T13:01:29;9.80;;;7.30;;
64950;SDS011;51482;47.014;7.652;2022-11-27T13:06:47;8.50;;;6.13;;
64950;SDS011;51482;47.014;7.652;2022-11-27T13:12:28;11.43;;;7.30;;
64950;SDS011;51482;47.014;7.652;2022-11-27T13:14:59;8.73;;;6.30;;
64950;SDS011;51482;47.014;7.652;2022-11-27T13:17:33;10.87;;;6.80;;
64950;SDS011;51482;47.014;7.652;2022-11-27T13:20:17;10.73;;;7.40;;
64950;SDS011;51482;47.014;7.652;2022-11-27T13:22:49;10.50;;;7.40;;
64950;SDS011;51482;47.014;7.652;2022-11-27T13:25:15;10.53;;;7.33;;
64950;SDS011;51482;47.014;7.652;2022-11-27T13:27:42;11.87;;;7.20;;
64950;SDS011;51482;47.014;7.652;2022-11-27T13:30:21;10.27;;;6.90;;
64950;SDS011;51482;47.014;7.652;2022-11-27T13:32:59;9.73;;;6.90;;
64950;SDS011;51482;47.014;7.652;2022-11-27T13:35:30;12.27;;;7.10;;
64950;SDS011;51482;47.014;7.652;2022-11-27T13:38:10;8.13;;;6.63;;
64950;SDS011;51482;47.014;7.652;2022-11-27T13:40:43;8.80;;;6.60;;
64950;SDS011;51482;47.014;7.652;2022-11-27T13:43:20;11.47;;;7.30;;
64950;SDS011;51482;47.014;7.652;2022-11-27T13:46:40;9.37;;;6.80;;
64950;SDS011;51482;47.014;7.652;2022-11-27T13:48:49;11.60;;;7.30;;
64950;SDS011;51482;47.014;7.652;2022-11-27T13:51:22;10.20;;;6.77;;
64950;SDS011;51482;47.014;7.652;2022-11-27T13:53:51;9.30;;;6.70;;
64950;SDS011;51482;47.014;7.652;2022-11-27T13:56:26;10.13;;;6.87;;
64950;SDS011;51482;47.014;7.652;2022-11-27T13:58:54;9.07;;;7.20;;
64950;SDS011;51482;47.014;7.652;2022-11-27T14:01:20;8.73;;;6.80;;
64950;SDS011;51482;47.014;7.652;2022-11-27T14:03:50;9.27;;;7.00;;
64950;SDS011;51482;47.014;7.652;2022-11-27T14:06:24;9.00;;;6.53;;
64950;SDS011;51482;47.014;7.652;2022-11-27T14:09:02;9.57;;;6.93;;
64950;SDS011;51482;47.014;7.652;2022-11-27T14:14:21;9.90;;;6.33;;
64950;SDS011;51482;47.014;7.652;2022-11-27T14:16:55;8.17;;;6.87;;
64950;SDS011;51482;47.014;7.652;2022-11-27T14:19:25;8.80;;;7.00;;
64950;SDS011;51482;47.014;7.652;2022-11-27T14:21:54;9.10;;;6.40;;
64950;SDS011;51482;47.014;7.652;2022-11-27T14:27:04;11.97;;;7.30;;
64950;SDS011;51482;47.014;7.652;2022-11-27T14:29:38;9.83;;;7.50;;
64950;SDS011;51482;47.014;7.652;2022-11-27T14:32:07;11.10;;;7.53;;
64950;SDS011;51482;47.014;7.652;2022-11-27T14:34:36;9.10;;;6.83;;
64950;SDS011;51482;47.014;7.652;2022-11-27T14:37:02;9.70;;;7.47;;
64950;SDS011;51482;47.014;7.652;2022-11-27T14:39:31;8.70;;;6.97;;
64950;SDS011;51482;47.014;7.652;2022-11-27T14:42:02;14.40;;;7.53;;
64950;SDS011;51482;47.014;7.652;2022-11-27T14:44:30;12.83;;;7.33;;
64950;SDS011;51482;47.014;7.652;2022-11-27T14:46:56;10.57;;;7.17;;
64950;SDS011;51482;47.014;7.652;2022-11-27T14:49:26;10.80;;;7.43;;
64950;SDS011;51482;47.014;7.652;2022-11-27T14:51:52;10.87;;;7.63;;
64950;SDS011;51482;47.014;7.652;2022-11-27T14:54:36;9.20;;;7.10;;
64950;SDS011;51482;47.014;7.652;2022-11-27T14:57:03;11.90;;;7.40;;
64950;SDS011;51482;47.014;7.652;2022-11-27T14:59:29;10.43;;;6.97;;
64950;SDS011;51482;47.014;7.652;2022-11-27T15:02:02;10.40;;;7.53;;
64950;SDS011;51482;47.014;7.652;2022-11-27T15:04:35;10.57;;;7.40;;
64950;SDS011;51482;47.014;7.652;2022-11-27T15:07:22;10.93;;;7.10;;
64950;SDS011;51482;47.014;7.652;2022-11-27T15:09:51;11.07;;;7.73;;
64950;SDS011;51482;47.014;7.652;2022-11-27T15:12:21;12.93;;;8.07;;
64950;SDS011;51482;47.014;7.652;2022-11-27T15:14:54;11.03;;;8.20;;
64950;SDS011;51482;47.014;7.652;2022-11-27T15:17:23;11.63;;;8.10;;
64950;SDS011;51482;47.014;7.652;2022-11-27T15:19:51;12.90;;;8.33;;
64950;SDS011;51482;47.014;7.652;2022-11-27T15:22:17;15.17;;;9.53;;
64950;SDS011;51482;47.014;7.652;2022-11-27T15:24:43;12.80;;;10.07;;
64950;SDS011;51482;47.014;7.652;2022-11-27T15:29:38;13.97;;;10.43;;
64950;SDS011;51482;47.014;7.652;2022-11-27T15:32:23;14.40;;;10.57;;
64950;SDS011;51482;47.014;7.652;2022-11-27T15:34:57;12.00;;;8.60;;
64950;SDS011;51482;47.014;7.652;2022-11-27T15:37:27;10.83;;;8.03;;
64950;SDS011;51482;47.014;7.652;2022-11-27T15:39:59;11.47;;;8.03;;
64950;SDS011;51482;47.014;7.652;2022-11-27T15:42:26;13.20;;;9.30;;
64950;SDS011;51482;47.014;7.652;2022-11-27T15:44:52;13.73;;;8.53;;
64950;SDS011;51482;47.014;7.652;2022-11-27T15:47:23;12.87;;;8.53;;
64950;SDS011;51482;47.014;7.652;2022-11-27T15:50:01;11.03;;;7.70;;
64950;SDS011;51482;47.014;7.652;2022-11-27T15:52:28;9.43;;;7.20;;
64950;SDS011;51482;47.014;7.652;2022-11-27T15:54:53;9.60;;;7.83;;
64950;SDS011;51482;47.014;7.652;2022-11-27T15:57:21;10.27;;;7.13;;
64950;SDS011;51482;47.014;7.652;2022-11-27T15:59:48;11.17;;;7.40;;
64950;SDS011;51482;47.014;7.652;2022-11-27T16:02:13;9.47;;;6.60;;
64950;SDS011;51482;47.014;7.652;2022-11-27T16:04:39;11.17;;;7.27;;
64950;SDS011;51482;47.014;7.652;2022-11-27T16:07:06;9.93;;;6.90;;
64950;SDS011;51482;47.014;7.652;2022-11-27T16:09:32;8.90;;;6.53;;
64950;SDS011;51482;47.014;7.652;2022-11-27T16:11:58;11.40;;;7.10;;
64950;SDS011;51482;47.014;7.652;2022-11-27T16:14:23;10.77;;;7.40;;
64950;SDS011;51482;47.014;7.652;2022-11-27T16:16:49;10.53;;;7.60;;
64950;SDS011;51482;47.014;7.652;2022-11-27T16:19:15;10.63;;;7.40;;
64950;SDS011;51482;47.014;7.652;2022-11-27T16:21:41;9.67;;;6.87;;
64950;SDS011;51482;47.014;7.652;2022-11-27T16:24:08;11.07;;;8.17;;
64950;SDS011;51482;47.014;7.652;2022-11-27T16:26:36;9.47;;;6.87;;
64950;SDS011;51482;47.014;7.652;2022-11-27T16:29:02;9.13;;;6.80;;
64950;SDS011;51482;47.014;7.652;2022-11-27T16:31:28;8.63;;;6.67;;
64950;SDS011;51482;47.014;7.652;2022-11-27T16:33:53;10.83;;;8.30;;
64950;SDS011;51482;47.014;7.652;2022-11-27T16:36:19;11.00;;;7.80;;
64950;SDS011;51482;47.014;7.652;2022-11-27T16:38:45;13.03;;;8.30;;
64950;SDS011;51482;47.014;7.652;2022-11-27T16:41:15;18.97;;;9.13;;
64950;SDS011;51482;47.014;7.652;2022-11-27T16:43:43;19.67;;;9.93;;